createdAt,value
2023-04-13T00:00:11.632Z,486.5000
2023-04-13T00:01:15.534Z,487.7500
2023-04-13T00:02:19.612Z,487.5000
2023-04-13T00:03:23.707Z,485.6667
2023-04-13T00:04:23.606Z,486.5454
2023-04-13T00:05:27.551Z,484.5000
2023-04-13T00:06:31.405Z,486.5000
2023-04-13T00:07:35.315Z,486.4167
2023-04-13T00:08:39.201Z,485.3333
2023-04-13T00:09:43.093Z,483.8333
2023-04-13T00:10:46.982Z,483.9167
2023-04-13T00:11:50.880Z,486.6667
2023-04-13T00:12:54.757Z,486.5000
2023-04-13T00:13:58.946Z,485.5000
2023-04-13T00:15:03.070Z,485.9167
2023-04-13T00:16:06.954Z,488.1667
2023-04-13T00:17:10.861Z,487.9167
2023-04-13T00:18:14.737Z,488.7500
2023-04-13T00:19:18.716Z,489.8333
2023-04-13T00:20:22.625Z,488.9167
2023-04-13T00:21:26.512Z,489.0000
2023-04-13T00:22:30.378Z,488.0000
2023-04-13T00:23:34.280Z,486.1667
2023-04-13T00:24:38.174Z,486.1667
2023-04-13T00:25:42.968Z,484.0833
2023-04-13T00:26:46.850Z,485.5000
2023-04-13T00:27:50.785Z,486.7500
2023-04-13T00:28:54.698Z,488.5000
2023-04-13T00:29:58.588Z,487.9167
2023-04-13T00:31:02.859Z,488.0000
2023-04-13T00:32:06.790Z,486.6667
2023-04-13T00:33:10.748Z,485.4167
2023-04-13T00:34:14.603Z,485.8333
2023-04-13T00:35:18.532Z,488.3333
2023-04-13T00:36:22.404Z,490.8333
2023-04-13T00:37:26.318Z,491.5000
2023-04-13T00:38:30.463Z,489.4167
2023-04-13T00:39:34.325Z,488.3333
2023-04-13T00:40:38.281Z,489.8333
2023-04-13T00:41:42.150Z,490.8333
2023-04-13T00:42:46.075Z,490.9167
2023-04-13T00:43:49.954Z,490.5000
2023-04-13T00:44:53.885Z,490.8333
2023-04-13T00:45:58.000Z,491.1667
2023-04-13T00:47:01.910Z,493.3333
2023-04-13T00:48:05.859Z,492.8333
2023-04-13T00:49:09.762Z,491.1667
2023-04-13T00:50:13.666Z,489.0000
2023-04-13T00:51:17.563Z,488.6667
2023-04-13T00:52:21.443Z,491.0000
2023-04-13T00:53:25.652Z,492.5000
2023-04-13T00:54:29.537Z,489.6667
2023-04-13T00:55:33.831Z,489.8333
2023-04-13T00:56:37.736Z,490.2500
2023-04-13T00:57:41.619Z,489.4167
2023-04-13T00:58:45.536Z,493.5000
2023-04-13T00:59:49.404Z,494.0000
2023-04-13T01:00:53.547Z,494.3333
2023-04-13T01:01:57.482Z,495.5000
2023-04-13T01:03:01.520Z,496.7500
2023-04-13T01:04:05.733Z,497.0000
2023-04-13T01:05:09.584Z,492.3333
2023-04-13T01:06:13.872Z,488.5000
2023-04-13T01:07:17.755Z,489.8333
2023-04-13T01:08:21.653Z,489.2500
2023-04-13T01:09:25.527Z,486.5833
2023-04-13T01:10:29.756Z,488.2500
2023-04-13T01:11:33.626Z,491.0000
2023-04-13T01:12:37.535Z,491.8333
2023-04-13T01:13:41.416Z,493.5833
2023-04-13T01:14:45.304Z,492.8333
2023-04-13T01:15:49.546Z,495.0833
2023-04-13T01:16:53.410Z,495.0833
2023-04-13T01:17:57.553Z,492.9167
2023-04-13T01:19:01.471Z,489.6667
2023-04-13T01:20:05.339Z,491.3333
2023-04-13T01:21:09.243Z,490.2500
2023-04-13T01:22:13.149Z,487.6667
2023-04-13T01:23:17.274Z,486.1667
2023-04-13T01:24:21.184Z,486.1667
2023-04-13T01:25:25.332Z,483.6667
2023-04-13T01:26:29.212Z,485.6667
2023-04-13T01:27:33.113Z,486.3333
2023-04-13T01:28:37.032Z,487.0833
2023-04-13T01:29:40.938Z,486.1667
2023-04-13T01:30:45.067Z,486.9167
2023-04-13T01:31:49.130Z,487.0000
2023-04-13T01:32:53.266Z,490.2500
2023-04-13T01:33:57.686Z,486.5833
2023-04-13T01:35:01.673Z,486.1667
2023-04-13T01:36:05.555Z,487.4167
2023-04-13T01:37:09.429Z,489.5833
2023-04-13T01:38:13.304Z,488.5000
2023-04-13T01:39:17.219Z,488.5000
2023-04-13T01:40:21.099Z,486.6667
2023-04-13T01:41:25.003Z,487.4167
2023-04-13T01:42:28.877Z,482.5000
2023-04-13T01:43:33.030Z,483.0000
2023-04-13T01:44:36.889Z,482.0000
2023-04-13T01:45:40.769Z,484.2500
2023-04-13T01:46:44.665Z,486.1667
2023-04-13T01:47:48.594Z,486.6667
2023-04-13T01:48:52.448Z,486.3333
2023-04-13T01:49:56.353Z,487.5000
2023-04-13T01:51:00.484Z,488.9167
2023-04-13T01:52:04.380Z,489.2500
2023-04-13T01:53:08.599Z,487.1667
2023-04-13T01:54:12.495Z,484.0000
2023-04-13T01:55:16.362Z,485.5000
2023-04-13T01:56:20.504Z,484.6667
2023-04-13T01:57:24.382Z,485.1667
2023-04-13T01:58:28.312Z,482.7500
2023-04-13T01:59:32.196Z,483.0833
2023-04-13T02:00:36.144Z,484.1667
2023-04-13T02:01:40.394Z,489.2500
2023-04-13T02:02:44.426Z,490.4167
2023-04-13T02:03:48.685Z,489.0833
2023-04-13T02:04:52.648Z,489.0000
2023-04-13T02:05:56.810Z,486.9167
2023-04-13T02:07:00.699Z,487.5000
2023-04-13T02:08:04.584Z,490.3333
2023-04-13T02:09:08.485Z,489.3333
2023-04-13T02:10:12.368Z,491.0833
2023-04-13T02:11:12.699Z,491.4000
2023-04-13T02:12:16.610Z,488.8333
2023-04-13T02:13:20.490Z,486.2500
2023-04-13T02:14:24.371Z,486.0000
2023-04-13T02:15:28.274Z,487.1667
2023-04-13T02:16:32.323Z,488.4167
2023-04-13T02:17:36.241Z,487.7500
2023-04-13T02:18:40.167Z,486.8333
2023-04-13T02:19:44.035Z,487.5833
2023-04-13T02:20:47.943Z,488.5000
2023-04-13T02:21:51.839Z,487.1667
2023-04-13T02:22:55.722Z,484.2500
2023-04-13T02:23:59.927Z,484.6667
2023-04-13T02:25:04.131Z,483.8333
2023-04-13T02:26:04.290Z,485.6364
2023-04-13T02:27:08.177Z,489.5833
2023-04-13T02:28:12.053Z,491.2500
2023-04-13T02:29:15.965Z,487.5000
2023-04-13T02:30:19.862Z,483.2500
2023-04-13T02:31:23.801Z,480.5000
2023-04-13T02:32:27.703Z,482.2500
2023-04-13T02:33:31.596Z,481.8333
2023-04-13T02:34:35.533Z,479.2500
2023-04-13T02:35:39.421Z,479.6667
2023-04-13T02:36:43.303Z,481.5000
2023-04-13T02:37:47.202Z,483.2500
2023-04-13T02:38:51.814Z,481.0000
2023-04-13T02:39:55.803Z,482.6667
2023-04-13T02:40:59.668Z,484.2500
2023-04-13T02:42:03.572Z,481.4167
2023-04-13T02:43:07.453Z,481.0000
2023-04-13T02:44:11.356Z,481.3333
2023-04-13T02:45:15.261Z,481.1667
2023-04-13T02:46:19.170Z,482.2500
2023-04-13T02:47:23.099Z,482.5000
2023-04-13T02:48:26.996Z,483.5000
2023-04-13T02:49:30.869Z,482.0000
2023-04-13T02:50:34.766Z,484.7500
2023-04-13T02:51:38.650Z,484.2500
2023-04-13T02:52:42.570Z,484.8333
2023-04-13T02:53:46.442Z,484.7500
2023-04-13T02:54:50.346Z,487.8333
2023-04-13T02:55:54.235Z,488.7500
2023-04-13T02:56:58.315Z,486.7500
2023-04-13T02:58:02.214Z,484.7500
2023-04-13T02:59:06.120Z,486.4167
2023-04-13T03:00:10.016Z,484.8333
2023-04-13T03:01:13.945Z,483.4167
2023-04-13T03:02:17.827Z,481.1667
2023-04-13T03:03:21.772Z,478.7500
2023-04-13T03:04:25.630Z,477.7500
2023-04-13T03:05:29.523Z,478.0000
2023-04-13T03:06:33.407Z,478.7500
2023-04-13T03:07:37.312Z,478.0000
2023-04-13T03:08:41.205Z,480.8333
2023-04-13T03:09:45.102Z,481.1667
2023-04-13T03:10:48.990Z,483.7500
2023-04-13T03:11:52.896Z,482.4167
2023-04-13T03:12:56.780Z,480.2500
2023-04-13T03:14:01.017Z,484.4167
2023-04-13T03:15:05.266Z,485.5000
2023-04-13T03:16:09.151Z,483.4167
2023-04-13T03:17:13.077Z,481.5000
2023-04-13T03:18:16.968Z,481.0000
2023-04-13T03:19:20.868Z,480.0000
2023-04-13T03:20:24.748Z,482.5000
2023-04-13T03:21:28.656Z,483.6667
2023-04-13T03:22:32.543Z,482.6667
2023-04-13T03:23:36.706Z,479.1667
2023-04-13T03:24:40.588Z,477.0833
2023-04-13T03:25:44.814Z,478.5833
2023-04-13T03:26:48.705Z,477.6667
2023-04-13T03:27:52.676Z,476.0000
2023-04-13T03:28:56.557Z,475.5000
2023-04-13T03:30:00.450Z,476.0833
2023-04-13T03:31:04.364Z,476.7500
2023-04-13T03:32:08.215Z,477.2500
2023-04-13T03:33:13.640Z,476.5833
2023-04-13T03:34:17.528Z,476.9167
2023-04-13T03:35:21.412Z,478.0833
2023-04-13T03:36:25.319Z,475.4167
2023-04-13T03:37:29.203Z,475.7500
2023-04-13T03:38:33.115Z,475.8333
2023-04-13T03:39:36.998Z,474.9167
2023-04-13T03:40:40.895Z,476.9167
2023-04-13T03:41:44.759Z,477.6667
2023-04-13T03:42:48.674Z,478.1667
2023-04-13T03:43:52.579Z,478.5833
2023-04-13T03:44:56.477Z,478.0833
2023-04-13T03:46:00.608Z,480.0000
2023-04-13T03:47:04.499Z,481.3333
2023-04-13T03:48:08.466Z,479.9167
2023-04-13T03:49:12.335Z,478.3333
2023-04-13T03:50:16.253Z,475.7500
2023-04-13T03:51:20.151Z,475.4167
2023-04-13T03:52:24.059Z,473.5833
2023-04-13T03:53:27.948Z,471.8333
2023-04-13T03:54:31.859Z,472.3333
2023-04-13T03:55:35.753Z,473.4167
2023-04-13T03:56:39.639Z,474.0833
2023-04-13T03:57:43.532Z,472.7500
2023-04-13T03:58:47.412Z,471.5000
2023-04-13T03:59:51.307Z,471.0000
2023-04-13T04:00:55.219Z,471.6667
2023-04-13T04:01:59.165Z,472.6667
2023-04-13T04:03:03.102Z,473.4167
2023-04-13T04:04:03.876Z,474.4546
2023-04-13T04:05:08.250Z,477.1667
2023-04-13T04:06:12.115Z,477.5833
2023-04-13T04:07:16.008Z,478.0000
2023-04-13T04:08:19.928Z,477.4167
2023-04-13T04:09:23.810Z,476.7500
2023-04-13T04:10:27.719Z,475.0000
2023-04-13T04:11:32.588Z,475.5833
2023-04-13T04:12:36.475Z,476.1667
2023-04-13T04:13:40.400Z,475.5833
2023-04-13T04:14:44.295Z,476.0000
2023-04-13T04:15:48.182Z,474.5833
2023-04-13T04:16:52.063Z,475.3333
2023-04-13T04:17:55.996Z,476.0000
2023-04-13T04:18:59.873Z,476.5000
2023-04-13T04:20:03.784Z,475.0000
2023-04-13T04:21:07.649Z,475.6667
2023-04-13T04:22:11.525Z,480.0000
2023-04-13T04:23:18.136Z,480.8333
2023-04-13T04:24:17.861Z,482.0909
2023-04-13T04:25:21.744Z,482.5000
2023-04-13T04:26:25.743Z,481.2500
2023-04-13T04:27:29.737Z,481.8333
2023-04-13T04:28:33.623Z,480.7500
2023-04-13T04:29:37.508Z,479.3333
2023-04-13T04:30:41.393Z,478.1667
2023-04-13T04:31:45.319Z,479.8333
2023-04-13T04:32:49.223Z,481.0833
2023-04-13T04:33:53.095Z,478.7500
2023-04-13T04:34:57.004Z,477.9167
2023-04-13T04:36:00.890Z,478.0000
2023-04-13T04:37:13.995Z,478.5833
2023-04-13T04:38:09.295Z,479.1818
2023-04-13T04:39:13.208Z,481.5833
2023-04-13T04:40:17.081Z,480.7500
2023-04-13T04:41:20.991Z,477.6667
2023-04-13T04:42:24.847Z,477.5833
2023-04-13T04:43:28.981Z,476.2500
2023-04-13T04:44:32.856Z,475.5000
2023-04-13T04:45:36.760Z,481.8333
2023-04-13T04:46:40.646Z,482.5833
2023-04-13T04:47:44.577Z,480.4167
2023-04-13T04:48:48.486Z,481.3333
2023-04-13T04:49:52.402Z,477.5833
2023-04-13T04:50:56.515Z,480.1667
2023-04-13T04:52:00.418Z,481.1667
2023-04-13T04:53:04.521Z,480.4167
2023-04-13T04:54:08.437Z,480.2500
2023-04-13T04:55:12.299Z,481.6667
2023-04-13T04:56:16.230Z,479.5833
2023-04-13T04:57:20.108Z,477.0833
2023-04-13T04:58:20.409Z,476.5454
2023-04-13T04:59:24.313Z,478.3333
2023-04-13T05:00:28.199Z,479.6667
2023-04-13T05:01:32.233Z,484.7500
2023-04-13T05:02:36.267Z,486.7500
2023-04-13T05:03:40.203Z,487.1667
2023-04-13T05:04:44.097Z,484.4167
2023-04-13T05:05:48.192Z,483.5000
2023-04-13T05:06:52.103Z,478.1667
2023-04-13T05:07:55.965Z,481.5833
2023-04-13T05:09:00.119Z,482.4167
2023-04-13T05:10:04.147Z,483.5833
2023-04-13T05:11:08.058Z,483.5000
2023-04-13T05:12:11.951Z,484.9167
2023-04-13T05:13:15.874Z,483.6667
2023-04-13T05:14:19.759Z,484.5833
2023-04-13T05:15:23.664Z,487.3333
2023-04-13T05:16:27.822Z,489.2500
2023-04-13T05:17:31.758Z,490.5000
2023-04-13T05:18:35.637Z,489.3333
2023-04-13T05:19:39.558Z,488.0000
2023-04-13T05:20:43.453Z,486.4167
2023-04-13T05:21:47.356Z,486.0000
2023-04-13T05:22:51.232Z,484.1667
2023-04-13T05:23:55.132Z,482.5000
2023-04-13T05:24:59.020Z,481.4167
2023-04-13T05:26:02.916Z,483.5833
2023-04-13T05:27:06.800Z,483.8333
2023-04-13T05:28:10.673Z,482.5000
2023-04-13T05:29:14.566Z,480.8333
2023-04-13T05:30:18.473Z,480.7500
2023-04-13T05:31:22.394Z,481.7500
2023-04-13T05:32:26.394Z,482.5000
2023-04-13T05:33:31.022Z,487.1667
2023-04-13T05:34:34.917Z,488.6667
2023-04-13T05:35:38.799Z,485.3333
2023-04-13T05:36:42.714Z,483.0000
2023-04-13T05:37:46.615Z,484.0833
2023-04-13T05:38:50.493Z,482.7500
2023-04-13T05:39:54.369Z,483.3333
2023-04-13T05:40:58.260Z,481.5833
2023-04-13T05:42:02.191Z,482.3333
2023-04-13T05:43:06.043Z,482.0000
2023-04-13T05:44:09.952Z,480.0000
2023-04-13T05:45:13.848Z,480.3333
2023-04-13T05:46:17.799Z,482.2500
2023-04-13T05:47:21.738Z,484.1667
2023-04-13T05:48:25.648Z,483.7500
2023-04-13T05:49:29.530Z,483.5000
2023-04-13T05:50:33.449Z,484.0833
2023-04-13T05:51:37.649Z,485.0000
2023-04-13T05:52:41.524Z,482.5000
2023-04-13T05:53:45.445Z,482.4167
2023-04-13T05:54:49.328Z,481.9167
2023-04-13T05:55:53.226Z,481.1667
2023-04-13T05:56:57.118Z,479.6667
2023-04-13T05:58:00.990Z,480.5000
2023-04-13T05:59:05.092Z,482.5833
2023-04-13T06:00:08.995Z,483.8333
2023-04-13T06:01:12.899Z,483.5833
2023-04-13T06:02:16.841Z,484.1667
2023-04-13T06:03:20.960Z,484.9167
2023-04-13T06:04:25.158Z,483.8333
2023-04-13T06:05:29.307Z,485.1667
2023-04-13T06:06:33.378Z,486.9167
2023-04-13T06:07:37.280Z,487.7500
2023-04-13T06:08:41.464Z,486.9167
2023-04-13T06:09:45.334Z,487.0000
2023-04-13T06:10:49.243Z,485.6667
2023-04-13T06:11:53.161Z,484.9167
2023-04-13T06:12:57.051Z,486.0000
2023-04-13T06:14:00.963Z,487.3333
2023-04-13T06:15:04.854Z,490.0833
2023-04-13T06:16:08.984Z,492.6667
2023-04-13T06:17:12.886Z,494.3333
2023-04-13T06:18:16.816Z,493.5833
2023-04-13T06:19:20.716Z,496.0000
2023-04-13T06:20:24.612Z,497.4167
2023-04-13T06:21:28.486Z,498.5833
2023-04-13T06:22:32.392Z,498.2500
2023-04-13T06:23:36.658Z,498.9167
2023-04-13T06:24:40.561Z,499.4167
2023-04-13T06:25:44.465Z,499.2500
2023-04-13T06:26:48.348Z,500.5000
2023-04-13T06:27:52.228Z,501.4167
2023-04-13T06:28:56.366Z,501.5833
2023-04-13T06:30:00.266Z,500.0000
2023-04-13T06:31:04.199Z,499.6667
2023-04-13T06:32:08.050Z,499.1667
2023-04-13T06:33:12.217Z,499.5000
2023-04-13T06:34:16.141Z,499.8333
2023-04-13T06:35:20.026Z,500.9167
2023-04-13T06:36:24.155Z,504.6667
2023-04-13T06:37:28.021Z,504.3333
2023-04-13T06:38:31.937Z,500.1667
2023-04-13T06:39:35.819Z,497.9167
2023-04-13T06:40:39.728Z,498.9167
2023-04-13T06:41:43.636Z,499.5000
2023-04-13T06:42:47.544Z,499.2500
2023-04-13T06:43:51.426Z,499.9167
2023-04-13T06:44:55.318Z,499.8333
2023-04-13T06:45:59.477Z,500.7500
2023-04-13T06:47:03.348Z,500.5833
2023-04-13T06:48:07.306Z,498.2500
2023-04-13T06:49:11.250Z,494.7500
2023-04-13T06:50:15.159Z,492.9167
2023-04-13T06:51:19.050Z,491.6667
2023-04-13T06:52:22.947Z,493.1667
2023-04-13T06:53:26.839Z,492.9167
2023-04-13T06:54:30.740Z,494.5833
2023-04-13T06:55:34.630Z,497.7500
2023-04-13T06:56:38.553Z,494.4167
2023-04-13T06:57:42.452Z,491.8333
2023-04-13T06:58:46.365Z,490.0000
2023-04-13T06:59:50.232Z,487.7500
2023-04-13T07:00:54.440Z,488.0833
2023-04-13T07:01:58.452Z,488.3333
2023-04-13T07:03:02.556Z,486.8333
2023-04-13T07:04:06.642Z,484.6667
2023-04-13T07:05:10.589Z,484.9167
2023-04-13T07:06:14.504Z,483.7500
2023-04-13T07:07:18.387Z,483.9167
2023-04-13T07:08:22.263Z,482.2500
2023-04-13T07:09:26.164Z,480.7500
2023-04-13T07:10:30.035Z,480.0833
2023-04-13T07:11:34.181Z,480.4167
2023-04-13T07:12:38.094Z,479.5000
2023-04-13T07:13:41.960Z,480.5833
2023-04-13T07:14:45.844Z,485.7500
2023-04-13T07:15:49.808Z,488.0833
2023-04-13T07:16:53.668Z,489.9167
2023-04-13T07:17:57.618Z,490.4167
2023-04-13T07:19:01.606Z,491.5000
2023-04-13T07:20:05.466Z,492.5000
2023-04-13T07:21:09.350Z,491.9167
2023-04-13T07:22:13.245Z,492.5000
2023-04-13T07:23:17.139Z,491.3333
2023-04-13T07:24:21.022Z,489.0000
2023-04-13T07:25:24.963Z,488.0833
2023-04-13T07:26:28.817Z,486.8333
2023-04-13T07:27:32.707Z,488.0000
2023-04-13T07:28:36.608Z,489.1667
2023-04-13T07:29:40.498Z,490.9167
2023-04-13T07:30:44.375Z,493.0833
2023-04-13T07:31:48.360Z,492.6667
2023-04-13T07:32:52.325Z,492.4167
2023-04-13T07:33:56.195Z,492.2500
2023-04-13T07:35:00.105Z,494.2500
2023-04-13T07:36:04.218Z,493.0833
2023-04-13T07:37:08.081Z,493.4167
2023-04-13T07:38:11.998Z,493.3333
2023-04-13T07:39:15.899Z,494.7500
2023-04-13T07:40:19.778Z,494.8333
2023-04-13T07:41:23.915Z,495.0833
2023-04-13T07:42:27.780Z,496.7500
2023-04-13T07:43:31.951Z,494.9167
2023-04-13T07:44:35.827Z,497.0833
2023-04-13T07:45:39.722Z,495.8333
2023-04-13T07:46:44.613Z,495.3333
2023-04-13T07:47:48.498Z,494.5833
2023-04-13T07:48:52.386Z,493.5000
2023-04-13T07:49:56.294Z,492.5833
2023-04-13T07:51:00.169Z,493.1667
2023-04-13T07:52:04.082Z,494.5833
2023-04-13T07:53:07.950Z,496.2500
2023-04-13T07:54:11.877Z,495.6667
2023-04-13T07:55:15.739Z,494.7500
2023-04-13T07:56:19.657Z,497.3333
2023-04-13T07:57:23.546Z,500.0000
2023-04-13T07:58:27.668Z,500.2500
2023-04-13T07:59:31.574Z,499.4167
2023-04-13T08:00:35.476Z,498.2500
2023-04-13T08:01:39.398Z,500.2500
2023-04-13T08:02:43.450Z,502.2500
2023-04-13T08:03:47.555Z,502.6667
2023-04-13T08:04:51.547Z,502.3333
2023-04-13T08:05:55.468Z,502.5000
2023-04-13T08:06:59.363Z,502.3333
2023-04-13T08:08:03.265Z,500.0833
2023-04-13T08:09:07.161Z,498.6667
2023-04-13T08:10:11.048Z,498.1667
2023-04-13T08:11:14.937Z,494.5833
2023-04-13T08:12:18.842Z,494.2500
2023-04-13T08:13:22.721Z,493.0000
2023-04-13T08:14:26.630Z,492.1667
2023-04-13T08:15:30.538Z,493.5000
2023-04-13T08:16:34.563Z,495.4167
2023-04-13T08:17:38.603Z,497.4167
2023-04-13T08:18:42.622Z,498.9167
2023-04-13T08:19:46.532Z,498.9167
2023-04-13T08:20:50.521Z,499.1667
2023-04-13T08:21:54.397Z,502.0000
2023-04-13T08:22:58.310Z,506.0833
2023-04-13T08:24:02.223Z,506.8333
2023-04-13T08:25:06.122Z,509.7500
2023-04-13T08:26:09.998Z,510.5833
2023-04-13T08:27:13.901Z,509.1667
2023-04-13T08:28:17.934Z,506.1667
2023-04-13T08:29:21.832Z,505.9167
2023-04-13T08:30:25.763Z,510.7500
2023-04-13T08:31:29.662Z,513.3333
2023-04-13T08:32:33.592Z,510.8333
2023-04-13T08:33:37.463Z,514.7500
2023-04-13T08:34:41.366Z,517.0000
2023-04-13T08:35:45.259Z,517.5833
2023-04-13T08:36:49.145Z,517.6667
2023-04-13T08:37:53.056Z,518.7500
2023-04-13T08:38:57.157Z,519.3333
2023-04-13T08:40:01.299Z,519.4167
2023-04-13T08:41:05.493Z,514.8333
2023-04-13T08:42:09.386Z,519.1667
2023-04-13T08:43:13.287Z,515.5000
2023-04-13T08:44:17.198Z,509.5833
2023-04-13T08:45:21.082Z,510.6667
2023-04-13T08:46:25.092Z,510.1667
2023-04-13T08:47:29.111Z,509.7500
2023-04-13T08:48:46.121Z,509.7500
2023-04-13T08:49:37.493Z,506.9091
2023-04-13T08:50:41.377Z,506.4167
2023-04-13T08:51:45.274Z,508.2500
2023-04-13T08:52:49.162Z,510.5833
2023-04-13T08:53:53.059Z,510.1667
2023-04-13T08:54:56.983Z,509.0833
2023-04-13T08:56:01.099Z,508.3333
2023-04-13T08:57:05.016Z,506.5833
2023-04-13T08:58:08.905Z,507.7500
2023-04-13T08:59:09.240Z,510.0000
2023-04-13T09:00:13.135Z,507.7500
2023-04-13T09:01:17.064Z,507.6667
2023-04-13T09:02:20.995Z,507.5000
2023-04-13T09:03:24.961Z,509.0000
2023-04-13T09:04:28.957Z,513.5833
2023-04-13T09:05:32.874Z,512.6667
2023-04-13T09:06:36.762Z,510.5000
2023-04-13T09:07:40.672Z,512.0833
2023-04-13T09:08:44.586Z,514.5000
2023-04-13T09:09:48.512Z,513.5833
2023-04-13T09:10:52.620Z,514.3333
2023-04-13T09:11:56.510Z,516.9167
2023-04-13T09:13:00.388Z,518.7500
2023-04-13T09:14:04.565Z,520.8333
2023-04-13T09:15:08.436Z,518.3333
2023-04-13T09:16:12.403Z,515.1667
2023-04-13T09:17:16.344Z,507.5833
2023-04-13T09:18:20.250Z,506.7500
2023-04-13T09:19:24.140Z,506.1667
2023-04-13T09:20:28.042Z,506.0833
2023-04-13T09:21:31.968Z,518.6667
2023-04-13T09:22:35.826Z,516.1667
2023-04-13T09:23:39.737Z,516.3333
2023-04-13T09:24:43.661Z,516.5000
2023-04-13T09:25:47.711Z,518.5000
2023-04-13T09:26:51.591Z,517.0000
2023-04-13T09:27:55.504Z,515.0000
2023-04-13T09:28:59.727Z,513.8333
2023-04-13T09:30:03.758Z,512.5000
2023-04-13T09:31:07.677Z,512.1667
2023-04-13T09:32:11.553Z,513.5000
2023-04-13T09:33:15.750Z,513.0833
2023-04-13T09:34:19.654Z,512.0000
2023-04-13T09:35:23.566Z,510.2500
2023-04-13T09:36:27.706Z,510.4167
2023-04-13T09:37:31.628Z,511.0000
2023-04-13T09:38:35.555Z,513.5833
2023-04-13T09:39:39.456Z,516.6667
2023-04-13T09:40:43.330Z,517.5000
2023-04-13T09:41:47.259Z,518.0833
2023-04-13T09:42:51.140Z,518.4167
2023-04-13T09:43:55.056Z,518.9167
2023-04-13T09:44:58.942Z,521.2500
2023-04-13T09:46:02.906Z,522.4167
2023-04-13T09:47:06.796Z,522.0000
2023-04-13T09:48:10.704Z,524.5833
2023-04-13T09:49:14.648Z,525.1667
2023-04-13T09:50:18.638Z,524.0000
2023-04-13T09:51:22.537Z,522.7500
2023-04-13T09:52:26.424Z,521.6667
2023-04-13T09:53:30.329Z,521.4167
2023-04-13T09:54:34.238Z,519.0000
2023-04-13T09:55:38.137Z,522.6667
2023-04-13T09:56:42.126Z,523.6667
2023-04-13T09:57:46.035Z,521.6667
2023-04-13T09:58:50.155Z,520.4167
2023-04-13T09:59:54.050Z,521.1667
2023-04-13T10:00:57.952Z,520.2500
2023-04-13T10:02:01.923Z,520.5000
2023-04-13T10:03:05.949Z,524.1667
2023-04-13T10:04:09.846Z,529.0000
2023-04-13T10:05:13.876Z,524.2500
2023-04-13T10:06:17.812Z,521.7500
2023-04-13T10:07:21.808Z,523.2500
2023-04-13T10:08:36.807Z,522.9167
2023-04-13T10:09:30.198Z,521.7273
2023-04-13T10:10:34.327Z,519.8333
2023-04-13T10:11:38.211Z,522.7500
2023-04-13T10:12:42.105Z,527.5833
2023-04-13T10:13:46.235Z,527.8333
2023-04-13T10:14:50.148Z,526.0000
2023-04-13T10:15:54.060Z,525.4167
2023-04-13T10:16:57.931Z,524.9167
2023-04-13T10:18:01.893Z,518.6667
2023-04-13T10:19:05.762Z,515.0000
2023-04-13T10:20:09.668Z,512.2500
2023-04-13T10:21:13.813Z,510.8333
2023-04-13T10:22:17.693Z,510.2500
2023-04-13T10:23:21.622Z,506.4167
2023-04-13T10:24:25.482Z,504.2500
2023-04-13T10:25:33.473Z,504.0000
2023-04-13T10:26:33.872Z,500.8182
2023-04-13T10:27:37.766Z,499.5000
2023-04-13T10:28:41.912Z,499.1667
2023-04-13T10:29:45.818Z,499.4167
2023-04-13T10:30:49.734Z,499.6667
2023-04-13T10:31:53.637Z,499.4167
2023-04-13T10:32:57.561Z,498.3333
2023-04-13T10:34:01.604Z,496.9167
2023-04-13T10:35:05.619Z,496.6667
2023-04-13T10:36:09.510Z,496.0833
2023-04-13T10:37:13.397Z,495.6667
2023-04-13T10:38:17.316Z,494.0833
2023-04-13T10:39:21.218Z,492.0833
2023-04-13T10:40:25.114Z,493.8333
2023-04-13T10:41:29.024Z,492.9167
2023-04-13T10:42:39.258Z,491.8333
2023-04-13T10:43:37.658Z,490.0000
2023-04-13T10:44:41.534Z,489.7500
2023-04-13T10:45:45.413Z,489.5833
2023-04-13T10:46:49.303Z,486.7500
2023-04-13T10:47:53.232Z,485.9167
2023-04-13T10:48:57.299Z,484.1667
2023-04-13T10:50:01.267Z,484.3333
2023-04-13T10:51:05.162Z,482.8333
2023-04-13T10:52:09.035Z,485.1667
2023-04-13T10:53:13.142Z,488.8333
2023-04-13T10:54:17.049Z,488.0833
2023-04-13T10:55:20.965Z,486.0000
2023-04-13T10:56:24.868Z,484.6667
2023-04-13T10:57:28.752Z,486.8333
2023-04-13T10:58:33.223Z,486.3333
2023-04-13T10:59:49.159Z,483.9167
2023-04-13T11:00:46.161Z,482.2727
2023-04-13T11:01:46.240Z,482.8182
2023-04-13T11:02:50.294Z,481.5000
2023-04-13T11:04:04.630Z,480.5000
2023-04-13T11:04:58.713Z,481.0000
2023-04-13T11:06:02.626Z,482.1667
2023-04-13T11:07:06.473Z,480.8333
2023-04-13T11:08:10.392Z,480.3333
2023-04-13T11:09:16.791Z,479.4167
2023-04-13T11:10:15.857Z,480.0909
2023-04-13T11:11:19.798Z,480.3333
2023-04-13T11:12:23.710Z,483.4167
2023-04-13T11:13:27.621Z,483.0833
2023-04-13T11:14:31.523Z,483.5833
2023-04-13T11:15:35.409Z,485.3333
2023-04-13T11:16:39.468Z,483.5833
2023-04-13T11:17:43.399Z,483.7500
2023-04-13T11:18:47.543Z,486.0833
2023-04-13T11:19:51.435Z,485.9167
2023-04-13T11:20:55.377Z,485.5000
2023-04-13T11:21:59.234Z,485.1667
2023-04-13T11:23:03.173Z,486.8333
2023-04-13T11:24:07.062Z,490.8333
2023-04-13T11:25:10.970Z,495.2500
2023-04-13T11:26:14.851Z,497.5000
2023-04-13T11:27:18.733Z,499.9167
2023-04-13T11:28:22.671Z,500.7500
2023-04-13T11:29:26.575Z,501.0833
2023-04-13T11:30:30.465Z,501.2500
2023-04-13T11:31:34.628Z,502.0000
2023-04-13T11:32:38.514Z,503.2500
2023-04-13T11:33:42.373Z,504.0000
2023-04-13T11:34:46.288Z,506.8333
2023-04-13T11:35:50.443Z,506.2500
2023-04-13T11:36:54.378Z,507.4167
2023-04-13T11:37:58.297Z,506.4167
2023-04-13T11:39:02.293Z,506.7500
2023-04-13T11:40:06.151Z,508.5000
2023-04-13T11:41:16.611Z,510.0000
2023-04-13T11:42:14.547Z,511.5454
2023-04-13T11:43:19.403Z,520.4167
2023-04-13T11:44:23.312Z,519.5000
2023-04-13T11:45:27.224Z,517.3333
2023-04-13T11:46:31.584Z,516.8333
2023-04-13T11:47:35.618Z,514.5833
2023-04-13T11:48:39.480Z,513.8333
2023-04-13T11:49:43.390Z,513.0000
2023-04-13T11:50:47.306Z,513.2500
2023-04-13T11:51:51.204Z,516.0833
2023-04-13T11:52:55.114Z,514.5833
2023-04-13T11:53:59.071Z,513.6667
2023-04-13T11:55:11.088Z,518.9167
2023-04-13T11:56:07.680Z,522.8182
2023-04-13T11:57:11.585Z,524.3333
2023-04-13T11:58:15.554Z,522.5833
2023-04-13T11:59:19.442Z,521.3333
2023-04-13T12:00:23.347Z,525.2500
2023-04-13T12:01:32.309Z,527.0000
2023-04-13T12:02:33.665Z,526.2727
2023-04-13T12:03:47.023Z,527.6364
2023-04-13T12:04:37.904Z,527.0000
2023-04-13T12:05:42.338Z,527.3333
2023-04-13T12:06:46.598Z,525.2500
2023-04-13T12:07:51.407Z,526.0833
2023-04-13T12:08:59.905Z,526.5000
2023-04-13T12:10:05.526Z,529.1818
2023-04-13T12:12:46.491Z,532.2727
2023-04-13T12:14:20.939Z,536.3636
2023-04-13T12:16:25.791Z,540.1818
2023-04-13T12:17:39.113Z,540.8182
2023-04-13T12:18:36.625Z,541.7273
2023-04-13T12:19:35.602Z,540.5455
2023-04-13T12:20:39.805Z,540.2500
2023-04-13T12:21:44.839Z,540.4167
2023-04-13T12:22:57.727Z,542.3333
2023-04-13T12:23:53.502Z,541.6364
2023-04-13T12:24:58.382Z,542.1667
2023-04-13T12:25:57.890Z,542.2727
2023-04-13T12:27:17.648Z,543.7500
2023-04-13T12:28:06.280Z,540.1818
2023-04-13T12:29:10.228Z,537.7500
2023-04-13T12:30:14.111Z,536.1667
2023-04-13T12:31:17.996Z,536.5833
2023-04-13T12:32:21.950Z,537.5000
2023-04-13T12:33:25.828Z,541.0000